Time;durP1;ratioP1;P1;durP2;ratioP2;P2;SDS_P1;SDS_P2;PMS_P1;PMS_P2;Temp;Humidity;BMP_temperature;BMP_pressure;BME280_temperature;BME280_humidity;BME280_pressure;Samples;Min_cycle;Max_cycle;Signal;HPM_P1;HPM_P2
2022/08/03 00:02:20;;;;;;;;;;;27.30;50.40;;;;;;5041167;28;20006;-61
2022/08/03 00:04:45;;;;;;;;;;;27.30;50.30;;;;;;5039852;28;19970;-60
2022/08/03 00:07:10;;;;;;;;;;;27.30;51.00;;;;;;5040450;28;19913;-60
2022/08/03 00:09:36;;;;;;;;;;;27.20;50.50;;;;;;5039114;28;20339;-60
2022/08/03 00:12:01;;;;;;;;;;;27.20;50.60;;;;;;5045551;28;19917;-60
2022/08/03 00:14:27;;;;;;;;;;;27.20;50.60;;;;;;5044035;28;20024;-60
2022/08/03 00:16:52;;;;;;;;;;;27.20;50.40;;;;;;5039195;28;19913;-60
2022/08/03 00:19:18;;;;;;;;;;;27.30;50.50;;;;;;5040177;28;19916;-60
2022/08/03 00:21:43;;;;;;;;;;;27.20;50.60;;;;;;5042236;28;19912;-60
2022/08/03 00:24:09;;;;;;;;;;;27.20;50.60;;;;;;5038535;28;20012;-60
2022/08/03 00:26:34;;;;;;;;;;;27.20;50.80;;;;;;5041741;28;19924;-60
2022/08/03 00:29:00;;;;;;;;;;;27.20;50.50;;;;;;5041144;28;19923;-60
2022/08/03 00:31:25;;;;;;;;;;;27.20;50.30;;;;;;5044260;28;19971;-60
2022/08/03 00:33:50;;;;;;;;;;;27.20;50.80;;;;;;5043414;28;19943;-60
2022/08/03 00:36:16;;;;;;;;;;;27.20;50.80;;;;;;5040969;28;19999;-60
2022/08/03 00:38:41;;;;;;;;;;;27.20;50.60;;;;;;5040811;28;19913;-60
2022/08/03 00:41:07;;;;;;;;;;;27.20;50.70;;;;;;5042679;28;20349;-60
2022/08/03 00:43:32;;;;;;;;;;;27.20;50.80;;;;;;5047509;28;20330;-60
2022/08/03 00:45:58;;;;;;;;;;;27.20;50.70;;;;;;5044174;28;20277;-60
2022/08/03 00:48:24;;;;;;;;;;;27.20;51.00;;;;;;5045553;28;20416;-60
2022/08/03 00:50:50;;;;;;;;;;;27.20;51.20;;;;;;5046718;28;20537;-60
2022/08/03 00:53:16;;;;;;;;;;;27.20;50.90;;;;;;5043391;28;19917;-60
2022/08/03 00:55:41;;;;;;;;;;;27.20;51.00;;;;;;5045313;28;19913;-60
2022/08/03 00:58:07;;;;;;;;;;;27.20;50.80;;;;;;5041621;28;19914;-60
2022/08/03 01:00:35;;;;;;;;;;;27.30;50.60;;;;;;5044306;28;19990;-60
2022/08/03 01:03:00;;;;;;;;;;;27.20;50.80;;;;;;5044368;28;19917;-60
2022/08/03 01:05:26;;;;;;;;;;;27.20;50.40;;;;;;5045823;28;19913;-60
2022/08/03 01:08:02;;;;;;;;;;;27.30;51.20;;;;;;5046197;28;19912;-60
2022/08/03 01:10:28;;;;;;;;;;;27.30;50.70;;;;;;5044463;28;20269;-60
2022/08/03 01:12:54;;;;;;;;;;;27.20;50.60;;;;;;5047637;28;19925;-60
2022/08/03 01:15:23;;;;;;;;;;;27.20;50.60;;;;;;5042919;28;20456;-60
2022/08/03 01:17:56;;;;;;;;;;;27.30;50.70;;;;;;5043611;28;19924;-60
2022/08/03 01:20:22;;;;;;;;;;;27.20;50.60;;;;;;5044399;28;19913;-59
2022/08/03 01:22:48;;;;;;;;;;;27.20;50.50;;;;;;5043673;28;20305;-60
2022/08/03 01:25:35;;;;;;;;;;;27.20;50.50;;;;;;5045793;28;20266;-60
2022/08/03 01:28:18;;;;;;;;;;;27.20;50.70;;;;;;5040629;28;20007;-60
2022/08/03 01:30:44;;;;;;;;;;;27.20;50.40;;;;;;5060348;28;20423;-60
2022/08/03 01:33:19;;;;;;;;;;;27.20;50.50;;;;;;5041747;28;19924;-60
2022/08/03 01:35:53;;;;;;;;;;;27.20;50.60;;;;;;5043378;28;20019;-60
2022/08/03 01:38:23;;;;;;;;;;;27.20;50.40;;;;;;5039413;28;19917;-59
2022/08/03 01:40:50;;;;;;;;;;;27.20;50.40;;;;;;5045062;28;19917;-60
2022/08/03 01:43:17;;;;;;;;;;;27.20;50.50;;;;;;5044867;28;19921;-60
2022/08/03 01:45:42;;;;;;;;;;;27.20;50.40;;;;;;5046457;28;19913;-60
2022/08/03 01:48:07;;;;;;;;;;;27.20;50.60;;;;;;5042949;28;20615;-59
2022/08/03 01:50:33;;;;;;;;;;;27.20;50.10;;;;;;5044578;28;19923;-60
2022/08/03 01:52:58;;;;;;;;;;;27.20;50.30;;;;;;5044828;28;20355;-60
2022/08/03 01:55:26;;;;;;;;;;;27.20;50.90;;;;;;5042865;28;19920;-60
2022/08/03 01:57:51;;;;;;;;;;;27.20;50.90;;;;;;5044105;28;19959;-60
2022/08/03 02:00:18;;;;;;;;;;;27.20;50.50;;;;;;5045027;28;19940;-60
2022/08/03 02:02:43;;;;;;;;;;;27.20;50.30;;;;;;5040944;28;20395;-60
2022/08/03 02:05:09;;;;;;;;;;;27.20;50.50;;;;;;5042002;28;19919;-60
2022/08/03 02:07:34;;;;;;;;;;;27.20;50.70;;;;;;5041533;28;20027;-60
2022/08/03 02:10:00;;;;;;;;;;;27.10;50.70;;;;;;5028391;28;19920;-59
2022/08/03 02:12:26;;;;;;;;;;;27.10;50.70;;;;;;5046952;28;20027;-60
2022/08/03 02:14:52;;;;;;;;;;;27.10;50.50;;;;;;5029914;28;20420;-60
2022/08/03 02:17:17;;;;;;;;;;;27.20;50.40;;;;;;5042682;28;19948;-60
2022/08/03 02:19:43;;;;;;;;;;;27.20;50.50;;;;;;5037453;28;19917;-60
2022/08/03 02:22:09;;;;;;;;;;;27.20;50.60;;;;;;5043293;28;20301;-60
2022/08/03 02:24:34;;;;;;;;;;;27.20;50.40;;;;;;5041471;28;19924;-60
2022/08/03 02:26:59;;;;;;;;;;;27.20;50.30;;;;;;5044090;28;20015;-60
2022/08/03 02:29:26;;;;;;;;;;;27.20;50.40;;;;;;5045229;28;19959;-60
2022/08/03 02:31:51;;;;;;;;;;;27.20;50.50;;;;;;5044289;28;20340;-60
2022/08/03 02:34:17;;;;;;;;;;;27.20;51.10;;;;;;5044130;28;19917;-59
2022/08/03 02:36:44;;;;;;;;;;;27.20;50.40;;;;;;5041945;28;19913;-60
2022/08/03 02:39:09;;;;;;;;;;;27.10;50.40;;;;;;5041097;28;19912;-60
2022/08/03 02:41:36;;;;;;;;;;;27.20;50.40;;;;;;5042478;28;20269;-60
2022/08/03 02:44:02;;;;;;;;;;;27.10;50.40;;;;;;5042745;28;19920;-60
2022/08/03 02:46:30;;;;;;;;;;;27.10;50.70;;;;;;5046059;28;19959;-60
2022/08/03 02:48:55;;;;;;;;;;;27.10;50.30;;;;;;5036687;28;19921;-60
2022/08/03 02:51:20;;;;;;;;;;;27.10;50.30;;;;;;5039324;28;19920;-60
2022/08/03 02:53:46;;;;;;;;;;;27.10;50.30;;;;;;5038035;28;19982;-60
2022/08/03 02:56:12;;;;;;;;;;;27.10;50.30;;;;;;5038548;28;19913;-60
2022/08/03 02:58:38;;;;;;;;;;;27.10;50.20;;;;;;5043250;28;19913;-60
2022/08/03 03:01:03;;;;;;;;;;;27.10;50.80;;;;;;5039207;28;19917;-60
2022/08/03 03:03:30;;;;;;;;;;;27.10;50.70;;;;;;5045788;28;19912;-60
2022/08/03 03:05:55;;;;;;;;;;;27.10;50.90;;;;;;5043204;28;19916;-60
2022/08/03 03:08:20;;;;;;;;;;;27.10;50.30;;;;;;5055656;28;19920;-60
2022/08/03 03:10:46;;;;;;;;;;;27.10;50.80;;;;;;5039645;28;19921;-60
2022/08/03 03:13:12;;;;;;;;;;;27.10;50.60;;;;;;5043656;28;20351;-60
2022/08/03 03:15:38;;;;;;;;;;;27.10;50.40;;;;;;5042530;28;20353;-60
2022/08/03 03:18:03;;;;;;;;;;;27.10;50.30;;;;;;5044391;28;19970;-60
2022/08/03 03:20:31;;;;;;;;;;;27.10;50.60;;;;;;5046110;28;19913;-60
2022/08/03 03:22:59;;;;;;;;;;;27.10;50.50;;;;;;5042351;28;19913;-60
2022/08/03 03:25:25;;;;;;;;;;;27.10;50.50;;;;;;5043872;28;19925;-60
2022/08/03 03:27:50;;;;;;;;;;;27.10;50.70;;;;;;5032297;28;19920;-60
2022/08/03 03:30:16;;;;;;;;;;;27.10;51.10;;;;;;5043210;28;19919;-60
2022/08/03 03:32:41;;;;;;;;;;;27.10;50.50;;;;;;5042490;28;19921;-60
2022/08/03 03:35:07;;;;;;;;;;;27.10;50.50;;;;;;5038399;28;19927;-60
2022/08/03 03:37:32;;;;;;;;;;;27.10;50.60;;;;;;5039746;28;19917;-60
2022/08/03 03:39:58;;;;;;;;;;;27.10;50.60;;;;;;5041542;28;19917;-60
2022/08/03 03:42:24;;;;;;;;;;;27.10;50.50;;;;;;5044864;28;20039;-59
2022/08/03 03:44:49;;;;;;;;;;;27.10;50.40;;;;;;5039539;28;19914;-60
2022/08/03 03:47:15;;;;;;;;;;;27.10;50.70;;;;;;5042465;28;19924;-60
2022/08/03 03:49:41;;;;;;;;;;;27.10;50.30;;;;;;5043494;28;20351;-60
2022/08/03 03:52:07;;;;;;;;;;;27.00;50.50;;;;;;5041240;28;19916;-60
2022/08/03 03:54:42;;;;;;;;;;;27.00;50.40;;;;;;5039762;28;19925;-60
2022/08/03 03:57:09;;;;;;;;;;;27.00;50.40;;;;;;5042377;28;19967;-60
2022/08/03 03:59:38;;;;;;;;;;;27.00;50.70;;;;;;5038024;28;19913;-60
2022/08/03 04:02:04;;;;;;;;;;;27.00;50.50;;;;;;5039805;28;20015;-60
2022/08/03 04:12:48;;;;;;;;;;;27.00;50.50;;;;;;5035608;28;19932;-60
2022/08/03 04:15:14;;;;;;;;;;;27.00;50.50;;;;;;5039367;28;19912;-60
2022/08/03 04:17:39;;;;;;;;;;;27.00;50.60;;;;;;5036968;28;19920;-60
2022/08/03 04:20:05;;;;;;;;;;;27.00;50.60;;;;;;5040641;28;20006;-60
2022/08/03 04:22:31;;;;;;;;;;;27.00;50.80;;;;;;5039926;28;19913;-60
2022/08/03 04:25:07;;;;;;;;;;;27.00;51.30;;;;;;5056492;28;19913;-60
2022/08/03 04:27:33;;;;;;;;;;;27.00;50.90;;;;;;5039729;28;19924;-60
2022/08/03 04:29:59;;;;;;;;;;;27.00;50.80;;;;;;5040712;28;19920;-60
2022/08/03 04:32:27;;;;;;;;;;;27.00;51.00;;;;;;5043924;28;19916;-60
2022/08/03 04:34:52;;;;;;;;;;;27.00;50.80;;;;;;5039649;28;19909;-60
2022/08/03 04:37:21;;;;;;;;;;;27.00;50.70;;;;;;5041371;28;19924;-60
2022/08/03 04:39:47;;;;;;;;;;;27.00;50.70;;;;;;5040851;28;19913;-60
2022/08/03 04:42:12;;;;;;;;;;;27.00;51.00;;;;;;5039355;28;20323;-60
2022/08/03 04:44:39;;;;;;;;;;;27.00;50.40;;;;;;5043276;28;19921;-60
2022/08/03 04:47:04;;;;;;;;;;;27.00;51.10;;;;;;5041879;28;19909;-60
2022/08/03 04:49:30;;;;;;;;;;;27.00;50.60;;;;;;5038154;28;20008;-60
2022/08/03 04:51:55;;;;;;;;;;;27.00;50.40;;;;;;5021282;28;20617;-60
2022/08/03 04:54:21;;;;;;;;;;;27.00;51.10;;;;;;5039467;28;19917;-60
2022/08/03 04:56:46;;;;;;;;;;;27.00;50.90;;;;;;5039331;28;20399;-60
2022/08/03 04:59:11;;;;;;;;;;;27.00;50.90;;;;;;5036406;28;19921;-60
2022/08/03 05:01:38;;;;;;;;;;;26.90;50.90;;;;;;5042466;28;19912;-60
2022/08/03 05:04:03;;;;;;;;;;;26.90;50.90;;;;;;5041556;28;19917;-60
2022/08/03 05:06:29;;;;;;;;;;;27.00;50.80;;;;;;5040039;28;20399;-60
2022/08/03 05:08:54;;;;;;;;;;;27.00;50.90;;;;;;5039441;28;19939;-60
2022/08/03 05:11:20;;;;;;;;;;;26.90;50.80;;;;;;5038832;28;20261;-61
2022/08/03 05:13:45;;;;;;;;;;;26.90;51.00;;;;;;5038941;28;19935;-60
2022/08/03 05:16:11;;;;;;;;;;;26.90;51.20;;;;;;5041474;28;20376;-60
2022/08/03 05:18:36;;;;;;;;;;;26.90;51.10;;;;;;5041580;28;19963;-60
2022/08/03 05:21:02;;;;;;;;;;;26.90;51.20;;;;;;5037644;28;20285;-60
2022/08/03 05:23:27;;;;;;;;;;;26.90;50.90;;;;;;5042054;28;19916;-60
2022/08/03 05:25:53;;;;;;;;;;;26.90;51.10;;;;;;5040287;28;19924;-60
2022/08/03 05:28:18;;;;;;;;;;;26.90;51.20;;;;;;5043119;28;23290;-60
2022/08/03 05:30:44;;;;;;;;;;;26.90;51.00;;;;;;5043042;28;20279;-60
2022/08/03 05:33:09;;;;;;;;;;;26.90;51.30;;;;;;5044962;28;19956;-60
2022/08/03 05:35:35;;;;;;;;;;;26.90;51.20;;;;;;5044156;28;19917;-60
2022/08/03 05:38:01;;;;;;;;;;;26.90;51.10;;;;;;5043449;28;19913;-60
2022/08/03 05:40:26;;;;;;;;;;;26.90;51.00;;;;;;5044817;28;19919;-59
2022/08/03 05:42:52;;;;;;;;;;;26.80;52.00;;;;;;5039144;28;19912;-60
2022/08/03 05:45:17;;;;;;;;;;;26.90;51.40;;;;;;5057769;28;20019;-60
2022/08/03 05:47:43;;;;;;;;;;;26.90;51.60;;;;;;5041434;28;20004;-60
2022/08/03 05:50:10;;;;;;;;;;;26.80;51.50;;;;;;5042561;28;20290;-60
2022/08/03 05:52:35;;;;;;;;;;;26.80;52.30;;;;;;5039111;28;19925;-60
2022/08/03 05:55:01;;;;;;;;;;;26.80;52.00;;;;;;5049436;28;19920;-60
2022/08/03 05:57:26;;;;;;;;;;;26.80;51.60;;;;;;5042506;28;19959;-59
2022/08/03 05:59:51;;;;;;;;;;;26.90;51.70;;;;;;5043247;28;19960;-59
2022/08/03 06:02:17;;;;;;;;;;;26.80;51.50;;;;;;5043381;28;20053;-60
2022/08/03 06:04:42;;;;;;;;;;;26.90;51.50;;;;;;5045093;28;19913;-61
2022/08/03 06:07:08;;;;;;;;;;;26.80;51.50;;;;;;5041465;28;19916;-59
2022/08/03 06:09:33;;;;;;;;;;;26.80;51.90;;;;;;5044553;28;20327;-60
2022/08/03 06:11:59;;;;;;;;;;;26.90;51.60;;;;;;5044643;28;19956;-59
2022/08/03 06:14:24;;;;;;;;;;;26.80;51.60;;;;;;5044641;28;20461;-60
2022/08/03 06:16:49;;;;;;;;;;;26.90;51.60;;;;;;5046897;28;20292;-60
2022/08/03 06:19:15;;;;;;;;;;;26.80;51.60;;;;;;5038529;28;20312;-60
2022/08/03 06:21:40;;;;;;;;;;;26.90;51.70;;;;;;5042739;28;20354;-60
2022/08/03 06:24:06;;;;;;;;;;;26.90;51.70;;;;;;5039001;28;19921;-61
2022/08/03 06:26:31;;;;;;;;;;;26.80;51.70;;;;;;5042201;28;19920;-60
2022/08/03 06:28:57;;;;;;;;;;;26.90;51.60;;;;;;5038509;28;19924;-60
2022/08/03 06:31:24;;;;;;;;;;;26.80;52.20;;;;;;5042355;28;20465;-60
2022/08/03 06:33:50;;;;;;;;;;;26.80;52.00;;;;;;5041739;28;19920;-60
2022/08/03 06:36:15;;;;;;;;;;;26.80;52.40;;;;;;5041690;28;19928;-58
2022/08/03 06:38:41;;;;;;;;;;;26.80;52.30;;;;;;5042942;28;19944;-58
2022/08/03 06:41:06;;;;;;;;;;;26.80;53.90;;;;;;5037451;28;19935;-60
2022/08/03 06:43:36;;;;;;;;;;;26.70;53.40;;;;;;5038949;28;19957;-59
2022/08/03 06:46:02;;;;;;;;;;;26.70;53.50;;;;;;5040733;28;21106;-60
2022/08/03 06:48:27;;;;;;;;;;;26.70;53.20;;;;;;5039008;28;20351;-60
2022/08/03 06:50:52;;;;;;;;;;;26.70;53.20;;;;;;5042246;28;19917;-60
2022/08/03 06:53:18;;;;;;;;;;;26.70;53.00;;;;;;5041903;28;20016;-60
2022/08/03 06:55:43;;;;;;;;;;;26.80;52.90;;;;;;5043748;28;19924;-60
2022/08/03 06:58:09;;;;;;;;;;;26.70;52.90;;;;;;5039169;28;19917;-60
2022/08/03 07:00:34;;;;;;;;;;;26.70;53.30;;;;;;5042013;28;20552;-60
2022/08/03 07:03:00;;;;;;;;;;;26.60;53.40;;;;;;5044500;28;19913;-60
2022/08/03 07:05:25;;;;;;;;;;;26.60;53.20;;;;;;5049599;28;20099;-60
2022/08/03 07:07:53;;;;;;;;;;;26.60;53.50;;;;;;5048418;28;19967;-60
2022/08/03 07:10:19;;;;;;;;;;;26.60;53.50;;;;;;5041679;28;19951;-60
2022/08/03 07:12:46;;;;;;;;;;;26.60;53.70;;;;;;5042785;28;20063;-60
2022/08/03 07:15:11;;;;;;;;;;;26.60;54.00;;;;;;5050789;28;19919;-60
2022/08/03 07:17:37;;;;;;;;;;;26.60;54.40;;;;;;5045211;28;20284;-60
2022/08/03 07:20:04;;;;;;;;;;;26.60;54.70;;;;;;5041651;28;19921;-61
2022/08/03 07:22:29;;;;;;;;;;;26.50;54.80;;;;;;5043698;28;20384;-60
2022/08/03 07:24:55;;;;;;;;;;;26.50;55.10;;;;;;5044698;28;20143;-61
2022/08/03 07:27:21;;;;;;;;;;;26.40;55.40;;;;;;5048621;28;19938;-60
2022/08/03 07:29:46;;;;;;;;;;;26.40;55.60;;;;;;5046597;28;19913;-61
2022/08/03 07:32:12;;;;;;;;;;;26.30;55.70;;;;;;5050324;28;19944;-61
2022/08/03 07:34:37;;;;;;;;;;;26.30;55.80;;;;;;5043667;28;19978;-62
2022/08/03 07:37:03;;;;;;;;;;;26.30;55.80;;;;;;5049421;28;19923;-61
2022/08/03 07:39:28;;;;;;;;;;;26.30;55.70;;;;;;5044918;28;19967;-61
2022/08/03 07:41:53;;;;;;;;;;;26.40;55.90;;;;;;5049681;28;19917;-61
2022/08/03 07:44:19;;;;;;;;;;;26.40;55.90;;;;;;5047451;28;19991;-61
2022/08/03 07:46:44;;;;;;;;;;;26.40;55.80;;;;;;5049088;28;19913;-60
2022/08/03 07:49:10;;;;;;;;;;;26.40;55.50;;;;;;5044806;28;19912;-60
2022/08/03 07:51:35;;;;;;;;;;;26.50;55.60;;;;;;5046486;28;19916;-61
2022/08/03 07:54:01;;;;;;;;;;;26.60;55.20;;;;;;5042706;28;19917;-61
2022/08/03 07:56:27;;;;;;;;;;;26.60;55.00;;;;;;5046664;28;20410;-59
2022/08/03 07:58:52;;;;;;;;;;;26.70;55.00;;;;;;5048717;28;19912;-61
2022/08/03 08:01:18;;;;;;;;;;;26.80;54.80;;;;;;5047679;28;20361;-61
2022/08/03 08:03:46;;;;;;;;;;;26.80;54.00;;;;;;5048127;28;19924;-60
2022/08/03 08:06:12;;;;;;;;;;;26.90;54.00;;;;;;5051663;28;20814;-60
2022/08/03 08:08:37;;;;;;;;;;;26.80;54.00;;;;;;5046582;28;19931;-60
2022/08/03 08:11:03;;;;;;;;;;;26.90;53.90;;;;;;5048953;28;20331;-61
2022/08/03 08:13:28;;;;;;;;;;;26.90;53.40;;;;;;5044262;28;19921;-61
2022/08/03 08:15:54;;;;;;;;;;;26.90;53.30;;;;;;5048666;28;20407;-60
2022/08/03 08:18:19;;;;;;;;;;;27.00;53.20;;;;;;5048422;28;19925;-61
2022/08/03 08:20:45;;;;;;;;;;;27.10;53.20;;;;;;5046059;28;20376;-61
2022/08/03 08:23:10;;;;;;;;;;;27.10;53.00;;;;;;5046596;28;19916;-60
2022/08/03 08:25:36;;;;;;;;;;;27.10;52.70;;;;;;5042801;28;19932;-59
2022/08/03 08:28:03;;;;;;;;;;;27.10;52.40;;;;;;5040976;28;19920;-60
2022/08/03 08:30:30;;;;;;;;;;;27.20;52.20;;;;;;5043456;28;19920;-59
2022/08/03 08:32:56;;;;;;;;;;;27.30;52.20;;;;;;5046525;28;20329;-59
2022/08/03 08:35:22;;;;;;;;;;;27.30;52.00;;;;;;5046700;28;19920;-60
2022/08/03 08:37:47;;;;;;;;;;;27.30;52.00;;;;;;5047666;28;19913;-60
2022/08/03 08:40:12;;;;;;;;;;;27.20;51.90;;;;;;5047606;28;19956;-60
2022/08/03 08:42:39;;;;;;;;;;;27.30;52.10;;;;;;5046765;28;19920;-61
2022/08/03 08:45:05;;;;;;;;;;;27.30;52.00;;;;;;5048961;28;19912;-60
2022/08/03 08:47:31;;;;;;;;;;;27.30;52.00;;;;;;5048276;28;19920;-61
2022/08/03 08:49:57;;;;;;;;;;;27.30;52.00;;;;;;5048412;28;19913;-61
2022/08/03 08:52:27;;;;;;;;;;;27.40;52.00;;;;;;5046032;28;19921;-61
2022/08/03 08:54:54;;;;;;;;;;;27.40;52.00;;;;;;5048007;28;19917;-60
2022/08/03 08:57:20;;;;;;;;;;;27.40;52.00;;;;;;5047536;28;20354;-60
2022/08/03 08:59:46;;;;;;;;;;;27.40;52.10;;;;;;5048999;28;19999;-60
2022/08/03 09:02:11;;;;;;;;;;;27.40;52.10;;;;;;5050343;28;19984;-61
2022/08/03 09:04:37;;;;;;;;;;;27.40;52.20;;;;;;5050470;28;20027;-61
2022/08/03 09:07:03;;;;;;;;;;;27.40;52.20;;;;;;5050491;28;20407;-61
2022/08/03 09:09:29;;;;;;;;;;;27.50;52.20;;;;;;5049685;28;20003;-61
2022/08/03 09:11:55;;;;;;;;;;;27.50;52.10;;;;;;5050260;28;19920;-60
2022/08/03 09:14:20;;;;;;;;;;;27.50;52.10;;;;;;5050102;28;20023;-60
2022/08/03 09:16:58;;;;;;;;;;;27.60;52.10;;;;;;5045502;28;19917;-60
2022/08/03 09:19:23;;;;;;;;;;;27.60;51.90;;;;;;5050947;28;20008;-61
2022/08/03 09:21:58;;;;;;;;;;;27.70;52.00;;;;;;5050079;28;20007;-60
2022/08/03 09:24:23;;;;;;;;;;;27.70;52.00;;;;;;5047516;28;19917;-60
2022/08/03 09:26:49;;;;;;;;;;;27.60;52.10;;;;;;5049184;28;19940;-61
2022/08/03 09:29:14;;;;;;;;;;;27.60;52.20;;;;;;5048344;28;19999;-60
2022/08/03 09:31:41;;;;;;;;;;;27.60;52.20;;;;;;5051888;28;19913;-59
2022/08/03 09:34:07;;;;;;;;;;;27.70;52.20;;;;;;5048892;28;19925;-60
2022/08/03 09:36:33;;;;;;;;;;;27.70;52.10;;;;;;5049059;28;19917;-60
2022/08/03 09:39:10;;;;;;;;;;;27.70;52.20;;;;;;5055653;28;19920;-60
2022/08/03 09:41:36;;;;;;;;;;;27.70;52.40;;;;;;5047944;28;19913;-61
2022/08/03 09:44:01;;;;;;;;;;;27.80;52.40;;;;;;5050859;28;19917;-61
2022/08/03 09:46:30;;;;;;;;;;;27.80;52.60;;;;;;5051963;28;19916;-60
2022/08/03 09:49:09;;;;;;;;;;;27.80;52.60;;;;;;5051001;28;19923;-60
2022/08/03 09:51:34;;;;;;;;;;;27.80;52.60;;;;;;5048424;28;19963;-61
2022/08/03 09:54:02;;;;;;;;;;;27.80;52.50;;;;;;5049774;28;19967;-60
2022/08/03 09:56:38;;;;;;;;;;;27.80;52.50;;;;;;5051972;28;19923;-60
2022/08/03 09:59:03;;;;;;;;;;;27.80;52.50;;;;;;5049412;28;19917;-61
2022/08/03 10:01:33;;;;;;;;;;;27.80;52.50;;;;;;5049642;28;19974;-61
2022/08/03 10:03:58;;;;;;;;;;;27.90;52.40;;;;;;5047043;28;19917;-61
2022/08/03 10:06:25;;;;;;;;;;;27.90;52.40;;;;;;5043434;28;19920;-61
2022/08/03 10:09:07;;;;;;;;;;;27.90;52.40;;;;;;5045980;28;19921;-61
2022/08/03 10:11:33;;;;;;;;;;;28.00;52.50;;;;;;5051378;28;19919;-60
2022/08/03 10:14:03;;;;;;;;;;;28.00;52.30;;;;;;5054120;28;19960;-60
2022/08/03 10:16:31;;;;;;;;;;;28.00;52.30;;;;;;5051425;28;20063;-60
2022/08/03 10:18:57;;;;;;;;;;;28.00;52.20;;;;;;5045574;28;19966;-60
2022/08/03 10:21:22;;;;;;;;;;;28.00;52.10;;;;;;5044772;28;19916;-59
2022/08/03 10:23:48;;;;;;;;;;;28.00;52.00;;;;;;5041955;28;20055;-61
2022/08/03 10:26:15;;;;;;;;;;;28.00;52.00;;;;;;5048761;28;19996;-61
2022/08/03 10:28:41;;;;;;;;;;;28.00;52.00;;;;;;5050974;28;19920;-60
2022/08/03 10:31:06;;;;;;;;;;;28.10;52.00;;;;;;5059038;28;19917;-61
2022/08/03 10:33:33;;;;;;;;;;;28.10;52.00;;;;;;5049746;28;19916;-60
2022/08/03 10:35:59;;;;;;;;;;;28.10;52.00;;;;;;5047456;28;19944;-61
2022/08/03 10:38:31;;;;;;;;;;;28.10;51.90;;;;;;5049145;28;20070;-60
2022/08/03 10:40:57;;;;;;;;;;;28.20;51.90;;;;;;5050771;28;19913;-59
2022/08/03 10:43:37;;;;;;;;;;;28.20;51.90;;;;;;5052678;28;20300;-61
2022/08/03 10:46:03;;;;;;;;;;;28.20;51.90;;;;;;5052466;28;19913;-61
2022/08/03 10:48:28;;;;;;;;;;;28.20;52.10;;;;;;5052753;28;19916;-61
2022/08/03 10:50:54;;;;;;;;;;;28.20;51.90;;;;;;5048065;28;19944;-60
2022/08/03 10:53:35;;;;;;;;;;;28.30;51.80;;;;;;5046319;28;20487;-60
2022/08/03 10:58:45;;;;;;;;;;;28.30;51.40;;;;;;5049769;28;19924;-61
2022/08/03 11:01:10;;;;;;;;;;;28.40;51.50;;;;;;5046477;28;19913;-60
2022/08/03 11:03:51;;;;;;;;;;;28.40;51.40;;;;;;5048467;28;19923;-60
2022/08/03 11:06:19;;;;;;;;;;;28.40;51.40;;;;;;5049068;28;20309;-61
2022/08/03 11:08:45;;;;;;;;;;;28.40;51.50;;;;;;5048980;28;19916;-61
2022/08/03 11:11:16;;;;;;;;;;;28.40;51.30;;;;;;5048219;28;20011;-61
2022/08/03 11:13:58;;;;;;;;;;;28.40;51.20;;;;;;5049160;28;19997;-61
2022/08/03 11:16:23;;;;;;;;;;;28.50;51.30;;;;;;5050515;28;19916;-61
2022/08/03 11:18:59;;;;;;;;;;;28.50;51.40;;;;;;5048142;28;20395;-60
2022/08/03 11:21:43;;;;;;;;;;;28.50;51.30;;;;;;5049052;28;19913;-60
2022/08/03 11:24:09;;;;;;;;;;;28.50;50.90;;;;;;5048639;28;19921;-60
2022/08/03 11:26:34;;;;;;;;;;;28.50;50.90;;;;;;5050330;28;19917;-61
2022/08/03 11:29:18;;;;;;;;;;;28.60;50.90;;;;;;5042824;28;19981;-61
2022/08/03 11:31:45;;;;;;;;;;;28.60;50.90;;;;;;5043595;28;19916;-61
2022/08/03 11:34:13;;;;;;;;;;;28.60;50.90;;;;;;5040333;28;20038;-62
2022/08/03 11:36:58;;;;;;;;;;;28.60;50.90;;;;;;5045168;28;20075;-61
2022/08/03 11:39:36;;;;;;;;;;;28.60;50.80;;;;;;5048769;28;20031;-60
2022/08/03 11:42:25;;;;;;;;;;;28.60;50.80;;;;;;5047156;28;19913;-61
2022/08/03 11:44:51;;;;;;;;;;;28.60;50.80;;;;;;5055057;28;19913;-61
2022/08/03 11:47:16;;;;;;;;;;;28.60;50.80;;;;;;5045821;28;19920;-61
2022/08/03 11:49:45;;;;;;;;;;;28.60;50.90;;;;;;5045549;28;19912;-60
2022/08/03 11:52:10;;;;;;;;;;;28.70;50.90;;;;;;5047199;28;19919;-60
2022/08/03 11:54:36;;;;;;;;;;;28.70;50.90;;;;;;5045145;28;19924;-61
2022/08/03 11:57:01;;;;;;;;;;;28.70;50.60;;;;;;5046626;28;19920;-60
2022/08/03 11:59:33;;;;;;;;;;;28.80;50.40;;;;;;5042976;28;19913;-60
2022/08/03 12:02:08;;;;;;;;;;;28.80;50.30;;;;;;5044739;28;20324;-61
2022/08/03 12:04:50;;;;;;;;;;;28.90;49.90;;;;;;5045577;28;19924;-61
2022/08/03 12:07:16;;;;;;;;;;;28.90;49.90;;;;;;5047794;28;19975;-60
2022/08/03 12:09:42;;;;;;;;;;;28.90;49.70;;;;;;5046511;28;19919;-61
2022/08/03 12:12:08;;;;;;;;;;;28.90;49.70;;;;;;5045188;28;20299;-61
2022/08/03 12:14:33;;;;;;;;;;;29.00;49.60;;;;;;5046948;28;19929;-61
2022/08/03 12:16:59;;;;;;;;;;;29.00;49.70;;;;;;5047918;28;19912;-61
2022/08/03 12:19:24;;;;;;;;;;;29.00;49.70;;;;;;5050183;28;19991;-61
2022/08/03 12:21:50;;;;;;;;;;;29.00;49.70;;;;;;5047896;28;19920;-60
2022/08/03 12:24:15;;;;;;;;;;;29.00;49.60;;;;;;5048098;28;19970;-61
2022/08/03 12:26:44;;;;;;;;;;;29.10;49.60;;;;;;5045187;28;19956;-60
2022/08/03 12:29:17;;;;;;;;;;;29.10;49.30;;;;;;5047746;28;19913;-61
2022/08/03 12:31:42;;;;;;;;;;;29.10;49.20;;;;;;5043300;28;19920;-61
2022/08/03 12:34:08;;;;;;;;;;;29.10;49.00;;;;;;5043167;28;19920;-62
2022/08/03 12:36:33;;;;;;;;;;;29.20;48.90;;;;;;5048196;28;19916;-61
2022/08/03 12:39:06;;;;;;;;;;;29.20;48.80;;;;;;5049163;28;19916;-61
2022/08/03 12:41:35;;;;;;;;;;;29.20;48.90;;;;;;5045297;28;23121;-61
2022/08/03 12:44:02;;;;;;;;;;;29.10;48.80;;;;;;5043035;28;19920;-61
2022/08/03 12:46:28;;;;;;;;;;;29.20;49.00;;;;;;5040901;28;20369;-60
2022/08/03 12:48:57;;;;;;;;;;;29.20;49.00;;;;;;5045666;28;20332;-61
2022/08/03 12:51:22;;;;;;;;;;;29.20;49.00;;;;;;5045224;28;19913;-61
2022/08/03 12:53:52;;;;;;;;;;;29.20;49.10;;;;;;5045749;28;20078;-60
2022/08/03 12:56:18;;;;;;;;;;;29.30;49.10;;;;;;5046804;28;19951;-61
2022/08/03 12:58:44;;;;;;;;;;;29.30;48.90;;;;;;5046419;28;19924;-61
2022/08/03 13:01:09;;;;;;;;;;;29.40;48.80;;;;;;5045647;28;19917;-61
2022/08/03 13:03:39;;;;;;;;;;;29.40;48.70;;;;;;5046705;28;19913;-61
2022/08/03 13:06:09;;;;;;;;;;;29.40;48.70;;;;;;5043172;28;19924;-61
2022/08/03 13:08:35;;;;;;;;;;;29.40;48.70;;;;;;5043788;28;20358;-60
2022/08/03 13:11:16;;;;;;;;;;;29.40;48.60;;;;;;5045896;28;20011;-61
2022/08/03 13:13:41;;;;;;;;;;;29.40;48.70;;;;;;5045412;28;19966;-60
2022/08/03 13:16:07;;;;;;;;;;;29.40;48.60;;;;;;5048922;28;20858;-61
2022/08/03 13:18:32;;;;;;;;;;;29.50;48.50;;;;;;5042748;28;19917;-60
2022/08/03 13:20:58;;;;;;;;;;;29.50;48.50;;;;;;5045980;28;19919;-61
2022/08/03 13:23:23;;;;;;;;;;;29.50;48.50;;;;;;5046850;28;20000;-60
2022/08/03 13:25:48;;;;;;;;;;;29.50;48.50;;;;;;5047930;28;19944;-61
2022/08/03 13:28:14;;;;;;;;;;;29.50;48.50;;;;;;5047856;28;19921;-61
2022/08/03 13:30:39;;;;;;;;;;;29.60;48.50;;;;;;5049020;28;19920;-61
2022/08/03 13:33:05;;;;;;;;;;;29.60;48.50;;;;;;5045052;28;20006;-61
2022/08/03 13:35:30;;;;;;;;;;;29.60;48.60;;;;;;5035986;28;19984;-61
2022/08/03 13:37:56;;;;;;;;;;;29.60;48.50;;;;;;5045078;28;19943;-61
2022/08/03 13:40:21;;;;;;;;;;;29.60;48.50;;;;;;5041328;28;19921;-60
2022/08/03 13:42:47;;;;;;;;;;;29.60;48.60;;;;;;5043673;28;19916;-61
2022/08/03 13:45:12;;;;;;;;;;;29.60;48.50;;;;;;5043682;28;20273;-61
2022/08/03 13:47:37;;;;;;;;;;;29.60;48.50;;;;;;5047440;28;20261;-60
2022/08/03 13:50:03;;;;;;;;;;;29.70;48.40;;;;;;5042779;28;19924;-61
2022/08/03 13:52:29;;;;;;;;;;;29.70;48.40;;;;;;5041769;28;19917;-61
2022/08/03 13:54:55;;;;;;;;;;;29.70;48.30;;;;;;5044319;28;19917;-61
2022/08/03 13:57:20;;;;;;;;;;;29.70;48.30;;;;;;5044920;28;19982;-61
2022/08/03 13:59:46;;;;;;;;;;;29.70;48.20;;;;;;5046910;28;19921;-61
2022/08/03 14:02:11;;;;;;;;;;;29.70;48.10;;;;;;5045555;28;20063;-61
2022/08/03 14:04:36;;;;;;;;;;;29.80;48.10;;;;;;5048581;28;19943;-61
2022/08/03 14:07:02;;;;;;;;;;;29.80;48.10;;;;;;5043526;28;19913;-61
2022/08/03 14:09:27;;;;;;;;;;;29.80;48.10;;;;;;5044361;28;19913;-61
2022/08/03 14:11:53;;;;;;;;;;;29.80;48.20;;;;;;5042354;28;20384;-62
2022/08/03 14:14:18;;;;;;;;;;;29.80;48.20;;;;;;5046295;28;20410;-61
2022/08/03 14:16:44;;;;;;;;;;;29.80;48.30;;;;;;5043405;28;19920;-62
2022/08/03 14:19:09;;;;;;;;;;;29.80;48.40;;;;;;5039790;28;19913;-61
2022/08/03 14:21:35;;;;;;;;;;;29.80;48.40;;;;;;5045118;28;19919;-60
2022/08/03 14:24:00;;;;;;;;;;;29.80;48.40;;;;;;5043219;28;20760;-61
2022/08/03 14:26:26;;;;;;;;;;;29.80;48.40;;;;;;5047638;28;19959;-61